In Rescue
 
Open Full Screen Window  High Contrast Mode
Wind Gusting 00 knots
04
September 19, 2019 5:12 PM EDT
Weather Information
Wind Direction
  020 °
Wind Speed
  04 kt (5 mph)
Wind Gust
  00 kt (0 mph)
Altimeter
30.29 in
Visibility
10 SM
Temperature
19° C
66° F
Dewpoint
07° C
45° F
Humidity
46%
Sky Condition
Clear
VFR

METAR KEFK 192112Z AUTO 02004KT 10SM CLR 19/07 A3029 RMK AO2 T01900073

FAA Disclaimer: The data displayed is for advisory purposes only and is not to be used for flight planning or operations.